首页
METAR-TAF:

METAR-TAF

机场 :

迪奥里·哈马尼国际机场

尼亞美, 尼日尔

纬度: 13-29N, 经度: 002-10E, 海拔: 223米

当前天气观测

该预报发布于44分钟前的08:00 UTC
风速6节,风向西转西南
温度 26°C
湿度 74%
气压 1014 hPa
能见度10公里或以上
1500米以下无云,无积雨云

METAR: DRRN 140800Z 25006KT CAVOK 26/21 Q1014 NOSIG

时间: 09:44 (08:44 UTC)

预报

该预报发布于3小时和44分钟前的05:00 UTC
预报有效从14日的 06点(UTC)到 15日的 12点(UTC)
风速6节,风向西南
能见度10公里或以上
少量云层高于2600英尺
几率 40% :
短暂存在
从 14日的 12点(UTC)到 14日的 18点(UTC)
能見度: 4000
多云层高于1600英尺
散云层高于2000英尺, 积雨云.
雷暴, 阵雨

TAF: DRRN 140500Z 1406/1512 22006KT 9999 FEW026 PROB40 TEMPO 1412/1418 4000 TS SHRA BKN016 SCT020CB

超过4000个机场的气象观测和天气预报(METAR&TAF报告)。

可查询的气象台以黄色和红色小点在地图上表示。

将鼠标移到小点上方,可查看气象台名称。

然后点击查看天气观测和预报。

如需切换地图:点击带黑十字的绿色按钮放大地图;点击带横线的绿色按钮缩小地图;或者点击绿色箭头查看邻近地区的地图。


METAR-TAF: